Time;durP1;ratioP1;P1;durP2;ratioP2;P2;SDS_P1;SDS_P2;PMS_P1;PMS_P2;Temp;Humidity;BMP_temperature;BMP_pressure;BME280_temperature;BME280_humidity;BME280_pressure;Samples;Min_cycle;Max_cycle;Signal;HPM_P1;HPM_P2
2023/08/10 00:00:32;;;;;;;;;;;14.20;99.90;;;;;;5114754;28;20472;-60
2023/08/10 00:02:57;;;;;;;0.85;0.85;;;14.00;99.90;;;;;;5114263;28;19919;-59
2023/08/10 00:05:24;;;;;;;;;;;14.10;99.90;;;;;;5114895;28;20051;-60
2023/08/10 00:07:50;;;;;;;0.20;0.20;;;14.00;99.90;;;;;;5114563;28;19967;-60
2023/08/10 00:10:16;;;;;;;0.30;0.30;;;14.20;99.90;;;;;;5114361;28;20051;-60
2023/08/10 00:12:41;;;;;;;0.10;0.10;;;14.20;99.90;;;;;;5114385;28;20066;-60
2023/08/10 00:15:07;;;;;;;;;;;13.90;99.90;;;;;;5114728;28;20080;-60
2023/08/10 00:17:33;;;;;;;0.10;0.10;;;13.90;99.90;;;;;;5114278;28;19928;-60
2023/08/10 00:19:58;;;;;;;;;;;13.80;99.90;;;;;;5114673;28;20112;-60
2023/08/10 00:22:24;;;;;;;0.10;0.10;;;14.20;99.90;;;;;;5114163;28;19989;-60
2023/08/10 00:24:50;;;;;;;;;;;13.90;99.90;;;;;;5095797;28;20043;-60
2023/08/10 00:27:16;;;;;;;0.17;0.17;;;13.70;99.90;;;;;;5113664;28;19927;-60
2023/08/10 00:29:41;;;;;;;0.20;0.20;;;13.70;99.90;;;;;;5113854;28;20092;-60
2023/08/10 00:32:07;;;;;;;2.13;1.08;;;14.10;99.90;;;;;;5114061;28;20443;-60
2023/08/10 00:34:32;;;;;;;;;;;13.60;99.90;;;;;;5114406;28;20052;-60
2023/08/10 00:36:58;;;;;;;0.20;0.20;;;13.90;99.90;;;;;;5114040;28;19924;-60
2023/08/10 00:39:24;;;;;;;;;;;13.40;99.90;;;;;;5114279;28;20131;-60
2023/08/10 00:41:49;;;;;;;0.30;0.30;;;13.80;99.90;;;;;;5113814;28;19920;-59
2023/08/10 00:44:16;;;;;;;;;;;13.50;99.90;;;;;;5114142;28;20395;-60
2023/08/10 00:46:42;;;;;;;0.90;0.43;;;13.80;99.90;;;;;;5113776;28;19978;-60
2023/08/10 00:49:09;;;;;;;0.20;0.20;;;13.90;99.90;;;;;;5113667;28;20047;-60
2023/08/10 00:51:35;;;;;;;0.20;0.20;;;14.00;99.90;;;;;;5113614;28;20054;-60
2023/08/10 00:54:03;;;;;;;0.10;0.10;;;14.20;99.90;;;;;;5113301;28;20047;-60
2023/08/10 00:56:28;;;;;;;0.43;0.32;;;14.00;99.90;;;;;;5095324;28;20094;-60
2023/08/10 00:58:54;;;;;;;0.43;0.43;;;13.90;99.90;;;;;;5113560;28;20419;-60
2023/08/10 01:01:20;;;;;;;;;;;14.20;99.90;;;;;;5113853;28;20048;-60
2023/08/10 01:03:45;;;;;;;0.20;0.20;;;14.10;99.90;;;;;;5113066;28;19927;-60
2023/08/10 01:06:30;;;;;;;;;;;14.00;99.90;;;;;;5113744;28;20437;-60
2023/08/10 01:09:14;;;;;;;0.10;0.10;;;13.80;99.90;;;;;;5113247;28;19926;-60
2023/08/10 01:11:47;;;;;;;0.20;0.20;;;13.80;99.90;;;;;;5113315;28;20047;-59
2023/08/10 01:14:28;;;;;;;0.10;0.10;;;13.90;99.90;;;;;;5113284;28;20039;-60
2023/08/10 01:16:57;;;;;;;0.20;0.20;;;14.00;99.90;;;;;;5113284;28;20411;-61
2023/08/10 01:19:30;;;;;;;0.20;0.20;;;13.90;99.90;;;;;;5113146;28;20127;-60
2023/08/10 01:22:06;;;;;;;0.30;0.30;;;14.00;99.90;;;;;;5113047;28;20126;-60
2023/08/10 01:24:38;;;;;;;0.28;0.28;;;14.00;99.90;;;;;;5113120;28;20114;-60
2023/08/10 01:27:04;;;;;;;0.10;0.10;;;13.70;99.90;;;;;;5095126;28;20168;-60
2023/08/10 01:29:30;;;;;;;0.20;0.20;;;14.00;99.90;;;;;;5112980;28;20117;-60
2023/08/10 01:31:56;;;;;;;0.20;0.20;;;14.00;99.90;;;;;;5112659;28;20472;-60
2023/08/10 01:34:22;;;;;;;0.20;0.20;;;13.70;99.90;;;;;;5113180;28;20047;-60
2023/08/10 01:36:47;;;;;;;0.20;0.20;;;13.80;99.90;;;;;;5112657;28;20100;-60
2023/08/10 01:39:13;;;;;;;0.75;0.75;;;13.80;99.90;;;;;;5113128;28;20532;-61
2023/08/10 01:41:39;;;;;;;;;;;13.70;99.90;;;;;;5094922;28;20602;-59
2023/08/10 01:44:04;;;;;;;0.20;0.20;;;13.60;99.90;;;;;;5112760;28;19967;-61
2023/08/10 01:46:32;;;;;;;;;;;13.60;99.90;;;;;;5113231;28;20047;-60
2023/08/10 01:49:00;;;;;;;0.20;0.20;;;13.90;99.90;;;;;;5112732;28;19926;-60
2023/08/10 01:51:27;;;;;;;0.25;0.25;;;13.90;99.90;;;;;;5112588;28;20503;-60
2023/08/10 01:53:56;;;;;;;0.20;0.20;;;13.60;99.90;;;;;;5112611;28;20058;-60
2023/08/10 01:56:21;;;;;;;0.30;0.30;;;13.30;99.90;;;;;;5112911;28;20043;-60
2023/08/10 01:58:47;;;;;;;0.22;0.22;;;13.00;99.90;;;;;;5112643;28;20069;-60
2023/08/10 02:01:13;;;;;;;0.30;0.30;;;13.20;99.90;;;;;;5112579;28;20046;-59
2023/08/10 02:03:39;;;;;;;3.65;0.25;;;13.10;99.90;;;;;;5112456;28;20109;-59
2023/08/10 02:06:05;;;;;;;0.10;0.10;;;13.20;99.90;;;;;;5112562;28;20048;-60
2023/08/10 02:08:31;;;;;;;0.30;0.30;;;13.00;99.90;;;;;;5112605;28;20093;-60
2023/08/10 02:10:57;;;;;;;0.17;0.17;;;13.10;99.90;;;;;;5112794;28;20100;-60
2023/08/10 02:13:22;;;;;;;;;;;13.30;99.90;;;;;;5113244;28;20046;-59
2023/08/10 02:15:50;;;;;;;0.20;0.20;;;13.30;99.90;;;;;;5112601;28;19920;-60
2023/08/10 02:18:15;;;;;;;0.32;0.32;;;13.20;99.90;;;;;;5112468;28;20051;-60
2023/08/10 02:20:41;;;;;;;0.30;0.30;;;12.80;99.90;;;;;;5094291;28;20058;-60
2023/08/10 02:23:07;;;;;;;0.28;0.28;;;13.20;99.90;;;;;;5112317;28;20043;-59
2023/08/10 02:25:32;;;;;;;0.20;0.20;;;13.00;99.90;;;;;;5112405;28;20051;-60
2023/08/10 02:27:58;;;;;;;;;;;13.70;99.90;;;;;;5112790;28;20047;-60
2023/08/10 02:30:23;;;;;;;2.10;0.95;;;13.10;99.90;;;;;;5112358;28;20393;-60
2023/08/10 02:32:49;;;;;;;0.20;0.20;;;13.00;99.90;;;;;;5111990;28;20070;-59
2023/08/10 02:35:15;;;;;;;0.20;0.20;;;13.30;99.90;;;;;;5112319;28;20376;-60
2023/08/10 02:37:41;;;;;;;0.40;0.40;;;13.10;99.90;;;;;;5112263;28;20066;-60
2023/08/10 02:40:07;;;;;;;;;;;13.20;99.90;;;;;;5112636;28;20116;-59
2023/08/10 02:42:33;;;;;;;0.13;0.13;;;13.30;99.90;;;;;;5112166;28;20030;-60
2023/08/10 02:44:59;;;;;;;7.18;0.50;;;13.50;99.90;;;;;;5112211;28;20131;-59
2023/08/10 02:47:24;;;;;;;;;;;13.40;99.90;;;;;;5112578;28;20704;-59
2023/08/10 02:49:50;;;;;;;0.30;0.30;;;13.40;99.90;;;;;;5114755;28;19923;-60
2023/08/10 02:52:15;;;;;;;0.30;0.30;;;13.30;99.90;;;;;;5116066;28;20040;-60
2023/08/10 02:54:41;;;;;;;1.15;0.30;;;13.40;99.90;;;;;;5115631;28;20054;-60
2023/08/10 02:57:07;;;;;;;0.20;0.20;;;13.30;99.90;;;;;;5115939;28;20055;-60
2023/08/10 02:59:33;;;;;;;0.80;0.38;;;13.50;99.90;;;;;;5116117;28;20051;-59
2023/08/10 03:01:59;;;;;;;;;;;13.20;99.90;;;;;;5116219;28;20039;-60
2023/08/10 03:04:24;;;;;;;1.35;0.32;;;13.40;99.90;;;;;;5115777;28;20287;-60
2023/08/10 03:06:50;;;;;;;;;;;13.20;99.90;;;;;;5116098;28;20050;-60
2023/08/10 03:09:16;;;;;;;0.28;0.28;;;13.50;99.90;;;;;;5115634;28;19924;-60
2023/08/10 03:11:41;;;;;;;0.20;0.20;;;13.50;99.90;;;;;;5115622;28;20046;-60
2023/08/10 03:14:07;;;;;;;0.10;0.10;;;13.60;99.90;;;;;;5115619;28;20096;-60
2023/08/10 03:16:33;;;;;;;0.40;0.40;;;13.70;99.90;;;;;;5115322;28;20124;-59
2023/08/10 03:18:58;;;;;;;;;;;13.10;99.90;;;;;;5115892;28;20058;-60
2023/08/10 03:21:24;;;;;;;0.20;0.20;;;13.50;99.90;;;;;;5115400;28;19919;-59
2023/08/10 03:23:50;;;;;;;0.20;0.20;;;13.20;99.90;;;;;;5115303;28;20046;-59
2023/08/10 03:26:15;;;;;;;0.30;0.30;;;13.50;99.90;;;;;;5097118;28;20048;-60
2023/08/10 03:28:41;;;;;;;0.40;0.40;;;13.80;99.90;;;;;;5115290;28;20388;-60
2023/08/10 03:31:10;;;;;;;;;;;13.50;99.90;;;;;;5115667;28;20051;-60
2023/08/10 03:33:35;;;;;;;0.35;0.35;;;13.40;99.90;;;;;;5115153;28;20005;-60
2023/08/10 03:36:02;;;;;;;0.30;0.30;;;13.50;99.90;;;;;;5096982;28;20456;-60
2023/08/10 03:38:28;;;;;;;0.60;0.60;;;13.40;99.90;;;;;;5115049;28;20055;-60
2023/08/10 03:40:53;;;;;;;0.25;0.25;;;13.70;99.90;;;;;;5115076;28;20047;-60
2023/08/10 03:43:19;;;;;;;;;;;13.30;99.90;;;;;;5115347;28;20032;-60
2023/08/10 03:45:45;;;;;;;0.30;0.30;;;13.80;99.90;;;;;;5114974;28;19926;-60
2023/08/10 03:48:10;;;;;;;5.43;0.30;;;13.70;99.90;;;;;;5114955;28;20078;-60
2023/08/10 03:50:36;;;;;;;0.82;0.45;;;13.60;99.90;;;;;;5115166;28;20496;-60
2023/08/10 03:53:01;;;;;;;;;;;13.70;99.90;;;;;;5115234;28;20040;-59
2023/08/10 03:55:27;;;;;;;0.30;0.30;;;13.30;99.90;;;;;;5096752;28;20387;-60
2023/08/10 03:57:53;;;;;;;0.22;0.22;;;12.80;99.90;;;;;;5096518;28;20052;-59
2023/08/10 04:00:21;;;;;;;;;;;13.40;99.90;;;;;;5115030;28;20172;-60
2023/08/10 04:02:47;;;;;;;0.30;0.30;;;13.60;99.90;;;;;;5114305;28;19931;-60
2023/08/10 04:05:12;;;;;;;;;;;13.50;99.90;;;;;;5115122;28;20380;-60
2023/08/10 04:07:39;;;;;;;0.30;0.30;;;13.50;99.90;;;;;;5114640;28;19931;-59
2023/08/10 04:10:06;;;;;;;0.20;0.20;;;13.90;99.90;;;;;;5114237;28;20086;-60
2023/08/10 04:12:33;;;;;;;0.28;0.28;;;13.40;99.90;;;;;;5114479;28;20138;-60
2023/08/10 04:14:59;;;;;;;0.60;0.60;;;13.50;99.90;;;;;;5096163;28;20055;-60
2023/08/10 04:17:24;;;;;;;0.20;0.20;;;13.60;99.90;;;;;;5114444;28;20116;-60
2023/08/10 04:19:50;;;;;;;0.30;0.30;;;13.90;99.90;;;;;;5114339;28;20044;-60
2023/08/10 04:22:16;;;;;;;6.05;0.43;;;13.50;99.90;;;;;;5114184;28;20062;-59
2023/08/10 04:24:41;;;;;;;0.73;0.73;;;13.40;99.90;;;;;;5114190;28;20123;-60
2023/08/10 04:27:07;;;;;;;0.20;0.20;;;13.20;99.90;;;;;;5114171;28;20505;-59
2023/08/10 04:29:32;;;;;;;;;;;13.20;99.90;;;;;;5114548;28;20044;-59
2023/08/10 04:31:58;;;;;;;0.20;0.20;;;13.40;99.90;;;;;;5113832;28;19928;-60
2023/08/10 04:34:24;;;;;;;0.30;0.30;;;13.60;99.90;;;;;;5114025;28;20098;-59
2023/08/10 04:36:49;;;;;;;;;;;12.90;99.90;;;;;;5114435;28;20429;-59
2023/08/10 04:39:16;;;;;;;0.35;0.35;;;13.40;99.90;;;;;;5113863;28;19973;-60
2023/08/10 04:41:42;;;;;;;0.30;0.30;;;13.40;99.90;;;;;;5113855;28;20482;-60
2023/08/10 04:44:08;;;;;;;0.60;0.60;;;13.60;99.90;;;;;;5113831;28;20043;-59
2023/08/10 04:46:35;;;;;;;0.20;0.20;;;13.30;99.90;;;;;;5113826;28;20403;-60
2023/08/10 04:49:01;;;;;;;0.30;0.30;;;13.30;99.90;;;;;;5113696;28;20407;-60
2023/08/10 04:51:26;;;;;;;0.20;0.20;;;13.10;99.90;;;;;;5095398;28;20051;-61
2023/08/10 04:53:52;;;;;;;0.20;0.20;;;13.40;99.90;;;;;;5113802;28;20051;-60
2023/08/10 04:56:17;;;;;;;;;;;13.40;99.90;;;;;;5113941;28;20044;-60
2023/08/10 04:58:43;;;;;;;0.20;0.20;;;13.30;99.90;;;;;;5113597;28;19944;-60
2023/08/10 05:01:12;;;;;;;0.28;0.28;;;13.20;99.90;;;;;;5095423;28;20498;-60
2023/08/10 05:03:39;;;;;;;0.20;0.20;;;13.70;99.90;;;;;;5113288;28;20060;-60
2023/08/10 05:06:05;;;;;;;0.20;0.20;;;13.50;99.90;;;;;;5113398;28;20047;-60
2023/08/10 05:08:31;;;;;;;0.20;0.20;;;13.50;99.90;;;;;;5113421;28;20047;-61
2023/08/10 05:10:58;;;;;;;0.28;0.28;;;13.80;99.90;;;;;;5113011;28;20151;-59
2023/08/10 05:13:24;;;;;;;0.25;0.25;;;13.40;99.90;;;;;;5113057;28;20043;-60
2023/08/10 05:15:50;;;;;;;0.20;0.20;;;13.70;99.90;;;;;;5113262;28;20120;-60
2023/08/10 05:18:17;;;;;;;0.20;0.20;;;13.90;99.90;;;;;;5113159;28;20403;-59
2023/08/10 05:20:43;;;;;;;0.20;0.20;;;13.60;99.90;;;;;;5113147;28;20453;-60
2023/08/10 05:23:09;;;;;;;0.30;0.30;;;13.40;99.90;;;;;;5113073;28;20127;-60
2023/08/10 05:25:34;;;;;;;0.10;0.10;;;13.70;99.90;;;;;;5113151;28;20039;-60
2023/08/10 05:28:00;;;;;;;;;;;13.80;99.90;;;;;;5113518;28;20043;-60
2023/08/10 05:30:26;;;;;;;0.32;0.32;;;13.50;99.90;;;;;;5113004;28;19920;-60
2023/08/10 05:32:51;;;;;;;;;;;13.70;99.90;;;;;;5113411;28;20121;-59
2023/08/10 05:35:17;;;;;;;0.32;0.32;;;14.20;99.90;;;;;;5113027;28;19930;-60
2023/08/10 05:37:43;;;;;;;0.20;0.20;;;14.10;99.90;;;;;;5094691;28;20090;-60
2023/08/10 05:40:11;;;;;;;0.20;0.20;;;14.10;99.90;;;;;;5112897;28;20048;-59
2023/08/10 05:42:38;;;;;;;0.10;0.10;;;13.90;99.90;;;;;;5112719;28;20055;-60
2023/08/10 05:45:08;;;;;;;0.20;0.20;;;14.00;99.90;;;;;;5094653;28;20044;-60
2023/08/10 05:47:35;;;;;;;0.52;0.52;;;14.40;99.90;;;;;;5113000;28;20047;-59
2023/08/10 05:50:04;;;;;;;0.10;0.10;;;14.00;99.90;;;;;;5113009;28;20085;-60
2023/08/10 05:52:29;;;;;;;0.15;0.15;;;14.10;99.90;;;;;;5113043;28;20110;-60
2023/08/10 05:54:55;;;;;;;0.30;0.30;;;14.00;99.90;;;;;;5113004;28;20082;-60
2023/08/10 05:57:21;;;;;;;0.32;0.32;;;14.50;99.90;;;;;;5112805;28;20085;-60
2023/08/10 05:59:47;;;;;;;;;;;14.20;99.90;;;;;;5113086;28;20058;-61
2023/08/10 06:02:13;;;;;;;0.20;0.20;;;14.00;99.90;;;;;;5112699;28;19924;-61
2023/08/10 06:04:41;;;;;;;;;;;14.20;99.90;;;;;;5094712;28;20091;-60
2023/08/10 06:07:07;;;;;;;0.35;0.35;;;14.70;99.90;;;;;;5112543;28;19923;-60
2023/08/10 06:09:33;;;;;;;0.30;0.30;;;14.70;99.90;;;;;;5112548;28;20051;-60
2023/08/10 06:11:59;;;;;;;0.10;0.10;;;14.60;99.90;;;;;;5112549;28;20093;-60
2023/08/10 06:14:25;;;;;;;0.55;0.55;;;15.10;99.90;;;;;;5112233;28;20090;-60
2023/08/10 06:16:50;;;;;;;;;;;14.90;99.90;;;;;;5112898;28;20084;-60
2023/08/10 06:19:16;;;;;;;0.30;0.30;;;14.80;99.90;;;;;;5094542;28;19923;-61
2023/08/10 06:21:42;;;;;;;0.30;0.30;;;15.40;99.90;;;;;;5094193;28;20043;-60
2023/08/10 06:24:09;;;;;;;;;;;15.10;99.90;;;;;;5114499;28;20051;-60
2023/08/10 06:26:36;;;;;;;0.75;0.75;;;15.00;99.90;;;;;;5098587;28;19919;-60
2023/08/10 06:29:02;;;;;;;0.10;0.10;;;15.60;99.90;;;;;;5116462;28;20057;-60
2023/08/10 06:31:28;;;;;;;0.20;0.20;;;15.50;99.90;;;;;;5116455;28;20051;-60
2023/08/10 06:33:54;;;;;;;;;;;15.60;99.90;;;;;;5116820;28;20142;-60
2023/08/10 06:36:21;;;;;;;0.20;0.20;;;15.60;99.90;;;;;;5116325;28;20057;-60
2023/08/10 06:38:46;;;;;;;0.98;0.55;;;15.70;99.90;;;;;;5116323;28;20055;-61
2023/08/10 06:41:12;;;;;;;0.22;0.22;;;15.60;99.90;;;;;;5116068;28;20392;-59
2023/08/10 06:43:38;;;;;;;;;;;16.20;99.90;;;;;;5116508;28;20043;-61
2023/08/10 06:46:03;;;;;;;0.20;0.20;;;16.00;99.90;;;;;;5098021;28;20014;-60
2023/08/10 06:48:29;;;;;;;;;;;16.30;99.90;;;;;;5116280;28;20048;-61
2023/08/10 06:50:55;;;;;;;0.10;0.10;;;16.30;99.90;;;;;;5116141;28;20017;-61
2023/08/10 06:53:21;;;;;;;;;;;16.50;99.90;;;;;;5116420;28;20369;-60
2023/08/10 06:55:50;;;;;;;0.28;0.28;;;16.60;99.90;;;;;;5115946;28;19923;-61
2023/08/10 06:58:16;;;;;;;0.98;0.40;;;16.10;99.90;;;;;;5115895;28;20039;-61
2023/08/10 07:00:42;;;;;;;0.20;0.20;;;16.80;99.90;;;;;;5115897;28;20050;-60
2023/08/10 07:03:07;;;;;;;;;;;16.90;99.90;;;;;;5115939;28;20051;-59
2023/08/10 07:05:40;;;;;;;0.10;0.10;;;16.70;99.90;;;;;;5115819;28;20337;-60
2023/08/10 07:08:08;;;;;;;0.10;0.10;;;16.70;99.90;;;;;;5115943;28;20058;-60
2023/08/10 07:10:37;;;;;;;0.80;0.63;;;16.50;99.90;;;;;;5115729;28;20495;-60
2023/08/10 07:13:03;;;;;;;0.20;0.20;;;16.90;99.90;;;;;;5115707;28;20044;-60
2023/08/10 07:15:32;;;;;;;0.10;0.10;;;17.10;99.90;;;;;;5115323;28;20628;-60
2023/08/10 07:17:58;;;;;;;0.55;0.25;;;17.00;99.90;;;;;;5097282;28;20044;-60
2023/08/10 07:20:24;;;;;;;0.25;0.25;;;17.50;99.90;;;;;;5115366;28;20135;-60
2023/08/10 07:22:50;;;;;;;0.45;0.38;;;17.30;99.90;;;;;;5115328;28;20129;-60
2023/08/10 07:25:18;;;;;;;0.20;0.20;;;17.50;99.90;;;;;;5115273;28;20043;-60
2023/08/10 07:27:45;;;;;;;0.20;0.20;;;17.70;99.90;;;;;;5115312;28;20051;-61
2023/08/10 07:30:13;;;;;;;0.40;0.40;;;17.80;99.90;;;;;;5115275;28;20052;-60
2023/08/10 07:32:39;;;;;;;0.10;0.10;;;18.10;99.90;;;;;;5115187;28;20055;-60
2023/08/10 07:35:06;;;;;;;0.20;0.20;;;17.90;99.90;;;;;;5096405;28;20176;-60
2023/08/10 07:37:34;;;;;;;1.08;0.77;;;17.80;99.90;;;;;;5115206;28;20515;-60
2023/08/10 07:40:00;;;;;;;0.10;0.10;;;17.80;99.90;;;;;;5115060;28;20407;-60
2023/08/10 07:42:25;;;;;;;0.10;0.10;;;18.00;99.90;;;;;;5114834;28;20032;-60
2023/08/10 07:44:51;;;;;;;0.20;0.20;;;18.10;99.90;;;;;;5114958;28;20055;-60
2023/08/10 07:47:17;;;;;;;0.22;0.22;;;17.80;99.90;;;;;;5114598;28;20056;-60
2023/08/10 07:49:45;;;;;;;0.00;0.00;;;17.80;99.90;;;;;;5114905;28;20048;-60
2023/08/10 07:52:11;;;;;;;0.10;0.10;;;17.70;99.90;;;;;;5114818;28;20048;-60
2023/08/10 07:54:37;;;;;;;0.10;0.10;;;17.80;99.90;;;;;;5096930;28;20399;-60
2023/08/10 07:57:03;;;;;;;0.20;0.20;;;18.10;99.90;;;;;;5114869;28;20062;-60
2023/08/10 07:59:29;;;;;;;0.10;0.10;;;18.10;99.90;;;;;;5114852;28;20043;-60
2023/08/10 08:01:54;;;;;;;0.10;0.10;;;17.70;99.90;;;;;;5114696;28;20046;-60
2023/08/10 08:04:20;;;;;;;0.20;0.20;;;17.90;99.90;;;;;;5114679;28;20055;-60
2023/08/10 08:06:46;;;;;;;0.10;0.10;;;18.00;99.90;;;;;;5114583;28;20097;-60
2023/08/10 08:09:12;;;;;;;0.10;0.10;;;17.80;99.90;;;;;;5114553;28;20081;-60
2023/08/10 08:11:39;;;;;;;6.68;1.85;;;17.50;99.90;;;;;;5114534;28;20054;-60
2023/08/10 08:14:05;;;;;;;0.32;0.32;;;17.70;99.90;;;;;;5114503;28;20384;-60
2023/08/10 08:16:31;;;;;;;0.15;0.15;;;17.50;99.90;;;;;;5114341;28;20048;-59
2023/08/10 08:18:57;;;;;;;0.10;0.10;;;17.70;99.90;;;;;;5114352;28;20047;-60
2023/08/10 08:21:25;;;;;;;0.10;0.10;;;18.30;99.90;;;;;;5114464;28;20460;-61
2023/08/10 08:23:52;;;;;;;0.20;0.20;;;17.70;99.90;;;;;;5114324;28;20032;-59
2023/08/10 08:26:19;;;;;;;0.10;0.10;;;18.00;99.90;;;;;;5114312;28;20133;-60
2023/08/10 08:28:46;;;;;;;0.05;0.05;;;18.10;99.90;;;;;;5113860;28;20081;-60
2023/08/10 08:31:12;;;;;;;0.10;0.10;;;17.70;99.90;;;;;;5114194;28;20040;-60
2023/08/10 08:33:39;;;;;;;0.32;0.20;;;18.10;99.90;;;;;;5095963;28;20043;-60
2023/08/10 08:36:05;;;;;;;0.10;0.10;;;18.10;99.90;;;;;;5114156;28;20126;-61
2023/08/10 08:38:32;;;;;;;0.10;0.10;;;18.20;99.90;;;;;;5114043;28;20051;-60
2023/08/10 08:41:06;;;;;;;0.22;0.22;;;17.90;99.90;;;;;;5114366;28;20132;-60
2023/08/10 08:43:33;;;;;;;0.10;0.10;;;18.00;99.90;;;;;;5113972;28;20101;-60
2023/08/10 08:45:59;;;;;;;0.10;0.10;;;18.10;99.90;;;;;;5113311;28;20130;-60
2023/08/10 08:48:29;;;;;;;0.60;0.57;;;18.20;99.90;;;;;;5113555;28;20131;-60
2023/08/10 08:50:55;;;;;;;0.10;0.10;;;18.10;99.90;;;;;;5113537;28;20518;-61
2023/08/10 08:53:22;;;;;;;0.10;0.10;;;18.40;99.90;;;;;;5113767;28;20391;-60
2023/08/10 08:55:48;;;;;;;1.15;0.45;;;18.30;99.90;;;;;;5095496;28;20049;-60
2023/08/10 08:58:17;;;;;;;0.35;0.20;;;18.10;99.90;;;;;;5113558;28;20044;-60
2023/08/10 09:00:53;;;;;;;0.10;0.10;;;18.30;99.90;;;;;;5113542;28;20548;-60
2023/08/10 09:03:20;;;;;;;;;;;18.80;99.90;;;;;;5113612;28;20411;-60
2023/08/10 09:05:46;;;;;;;0.10;0.10;;;18.60;99.90;;;;;;5113563;28;19950;-60
2023/08/10 09:08:16;;;;;;;0.00;0.00;;;18.50;99.90;;;;;;5113409;28;20130;-60
2023/08/10 09:10:46;;;;;;;0.40;0.40;;;19.00;99.90;;;;;;5113322;28;20127;-60
2023/08/10 09:13:19;;;;;;;0.10;0.10;;;18.80;99.90;;;;;;5113310;28;20044;-60
2023/08/10 09:15:45;;;;;;;0.10;0.10;;;18.40;99.90;;;;;;5113434;28;20058;-61
2023/08/10 09:18:11;;;;;;;0.20;0.20;;;18.70;99.90;;;;;;5113056;28;20142;-60
2023/08/10 09:20:37;;;;;;;0.10;0.10;;;18.90;99.90;;;;;;5113295;28;20527;-61
2023/08/10 09:23:03;;;;;;;0.08;0.08;;;18.60;99.90;;;;;;5113064;28;20051;-60
2023/08/10 09:25:37;;;;;;;0.20;0.20;;;19.10;99.90;;;;;;5108065;28;20046;-63
2023/08/10 09:28:08;;;;;;;0.43;0.40;;;19.00;99.90;;;;;;5087021;28;20970;-59
2023/08/10 09:30:34;;;;;;;0.17;0.17;;;18.80;99.90;;;;;;5110654;28;20051;-59
2023/08/10 09:33:00;;;;;;;0.20;0.20;;;19.10;99.90;;;;;;5111686;28;20039;-59
2023/08/10 09:35:30;;;;;;;0.10;0.10;;;19.20;99.90;;;;;;5107350;28;20392;-67
2023/08/10 09:38:01;;;;;;;0.00;0.00;;;19.10;99.90;;;;;;5107637;28;20051;-62
2023/08/10 09:40:27;;;;;;;0.38;0.38;;;19.20;99.90;;;;;;5111479;28;20094;-61
2023/08/10 09:42:53;;;;;;;0.10;0.10;;;19.00;99.90;;;;;;5110478;28;20483;-62
2023/08/10 09:45:19;;;;;;;0.20;0.20;;;19.10;99.90;;;;;;5093446;28;20118;-61
2023/08/10 09:47:45;;;;;;;0.28;0.22;;;19.20;99.90;;;;;;5111468;28;20130;-61
2023/08/10 09:50:14;;;;;;;0.00;0.00;;;19.00;99.90;;;;;;5110705;28;20071;-61
2023/08/10 09:52:40;;;;;;;0.10;0.10;;;19.30;99.90;;;;;;5110381;28;20114;-61
2023/08/10 09:55:08;;;;;;;0.43;0.30;;;18.90;99.90;;;;;;5093685;28;20122;-61
2023/08/10 09:57:39;;;;;;;0.10;0.10;;;19.00;99.90;;;;;;5111819;28;20054;-61
2023/08/10 10:00:18;;;;;;;0.10;0.10;;;19.20;99.90;;;;;;5112374;28;20043;-61
2023/08/10 10:02:45;;;;;;;0.13;0.13;;;19.10;99.90;;;;;;5111297;28;20086;-61
2023/08/10 10:05:11;;;;;;;0.10;0.10;;;19.50;99.90;;;;;;5112105;28;20059;-62
2023/08/10 10:07:38;;;;;;;0.10;0.10;;;19.40;99.90;;;;;;5101668;28;20074;-62
2023/08/10 10:10:08;;;;;;;0.10;0.10;;;19.50;99.90;;;;;;5110883;28;20052;-61
2023/08/10 10:12:35;;;;;;;0.10;0.10;;;19.30;99.90;;;;;;5111222;28;20043;-61
2023/08/10 10:15:01;;;;;;;2.22;0.63;;;19.80;99.90;;;;;;5110797;28;20048;-61
2023/08/10 10:17:27;;;;;;;0.10;0.10;;;19.70;99.90;;;;;;5110984;28;20605;-61
2023/08/10 10:19:53;;;;;;;0.28;0.20;;;19.80;99.90;;;;;;5111440;28;20044;-61
2023/08/10 10:22:20;;;;;;;0.10;0.10;;;19.90;99.90;;;;;;5109671;28;20044;-61
2023/08/10 10:24:48;;;;;;;0.13;0.10;;;19.60;99.90;;;;;;5111374;28;20054;-61
2023/08/10 10:27:14;;;;;;;0.10;0.10;;;20.10;99.90;;;;;;5110723;28;20048;-62
2023/08/10 10:29:49;;;;;;;1.77;0.50;;;20.10;99.90;;;;;;5110534;28;20047;-62
2023/08/10 10:32:22;;;;;;;0.00;0.00;;;19.90;99.90;;;;;;5110799;28;20031;-61
2023/08/10 10:34:51;;;;;;;0.13;0.13;;;20.20;99.90;;;;;;5110694;28;20136;-61
2023/08/10 10:37:35;;;;;;;0.08;0.08;;;20.10;99.90;;;;;;5109477;28;20055;-62
2023/08/10 10:40:18;;;;;;;0.25;0.25;;;20.40;99.90;;;;;;5110946;28;20131;-63
2023/08/10 10:43:03;;;;;;;0.10;0.10;;;21.00;99.90;;;;;;5110641;28;20043;-60
2023/08/10 10:45:40;;;;;;;0.00;0.00;;;20.80;99.90;;;;;;5107984;28;20529;-61
2023/08/10 10:48:06;;;;;;;0.05;0.05;;;21.10;99.90;;;;;;5089210;28;20060;-61
2023/08/10 10:50:32;;;;;;;0.20;0.20;;;20.90;99.90;;;;;;5089989;28;20047;-63
2023/08/10 10:53:05;;;;;;;0.73;0.50;;;21.00;99.90;;;;;;5105786;28;20050;-60
2023/08/10 10:55:34;;;;;;;0.10;0.10;;;21.00;99.90;;;;;;5111030;28;20077;-62
2023/08/10 10:58:04;;;;;;;0.10;0.10;;;20.80;99.90;;;;;;5110020;28;20141;-61
2023/08/10 11:00:33;;;;;;;0.00;0.00;;;21.00;99.90;;;;;;5109975;28;20451;-61
2023/08/10 11:03:00;;;;;;;0.20;0.20;;;20.60;99.90;;;;;;5110932;28;20095;-61
2023/08/10 11:05:27;;;;;;;0.30;0.30;;;20.90;99.90;;;;;;5110736;28;20081;-62
2023/08/10 11:07:53;;;;;;;0.20;0.20;;;20.80;99.90;;;;;;5111072;28;20122;-60
2023/08/10 11:10:21;;;;;;;0.65;0.65;;;20.70;99.90;;;;;;5113222;28;20135;-63
2023/08/10 11:12:48;;;;;;;0.20;0.20;;;20.80;99.90;;;;;;5096625;28;20078;-61
2023/08/10 11:15:16;;;;;;;0.10;0.10;;;20.50;99.90;;;;;;5114967;28;20051;-62
2023/08/10 11:17:47;;;;;;;0.57;0.57;;;20.50;99.90;;;;;;5096411;28;20121;-61
2023/08/10 11:20:18;;;;;;;0.10;0.10;;;20.70;99.90;;;;;;5114749;28;20047;-61
2023/08/10 11:22:55;;;;;;;0.30;0.30;;;20.50;99.90;;;;;;5114638;28;20123;-61
2023/08/10 11:25:24;;;;;;;1.45;0.85;;;20.50;99.90;;;;;;5114844;28;20043;-61
2023/08/10 11:27:52;;;;;;;0.05;0.05;;;20.60;99.90;;;;;;5114743;28;20047;-60
2023/08/10 11:30:19;;;;;;;0.88;0.52;;;20.40;99.90;;;;;;5096211;28;20434;-60
2023/08/10 11:32:53;;;;;;;0.28;0.28;;;20.10;99.90;;;;;;5114535;28;20051;-61
2023/08/10 11:35:24;;;;;;;0.52;0.52;;;20.10;99.90;;;;;;5114215;28;20039;-61
2023/08/10 11:37:51;;;;;;;0.10;0.10;;;20.30;99.90;;;;;;5114582;28;20101;-61
2023/08/10 11:40:20;;;;;;;0.13;0.13;;;20.50;99.90;;;;;;5114500;28;20054;-61
2023/08/10 11:43:10;;;;;;;0.30;0.30;;;20.60;99.90;;;;;;5114273;28;20047;-61
2023/08/10 11:45:38;;;;;;;0.30;0.10;;;20.30;99.90;;;;;;5114369;28;20035;-61
2023/08/10 11:48:10;;;;;;;0.15;0.15;;;20.50;99.90;;;;;;5114118;28;20441;-61
2023/08/10 11:50:38;;;;;;;0.10;0.10;;;20.50;99.90;;;;;;5118756;27;20047;-61
2023/08/10 11:53:11;;;;;;;1.17;0.45;;;20.60;99.90;;;;;;5114086;28;20043;-61
2023/08/10 11:55:48;;;;;;;0.20;0.20;;;20.60;99.90;;;;;;5114081;28;20070;-62
2023/08/10 11:58:15;;;;;;;0.13;0.10;;;20.50;99.90;;;;;;5113709;28;20096;-60
2023/08/10 12:00:41;;;;;;;0.70;0.70;;;20.70;99.90;;;;;;5114037;28;20058;-61
2023/08/10 12:03:18;;;;;;;0.10;0.10;;;20.80;99.90;;;;;;5113738;28;20114;-61
2023/08/10 12:05:46;;;;;;;0.20;0.20;;;20.60;99.90;;;;;;5114022;28;20044;-60
2023/08/10 12:08:19;;;;;;;0.10;0.10;;;20.60;99.90;;;;;;5113822;28;20101;-61
2023/08/10 12:10:49;;;;;;;0.10;0.10;;;20.50;99.90;;;;;;5095967;28;20458;-60
2023/08/10 12:13:17;;;;;;;0.13;0.13;;;20.30;99.90;;;;;;5113868;28;20100;-60
2023/08/10 12:15:47;;;;;;;0.20;0.20;;;20.30;99.90;;;;;;5113925;28;20051;-63
2023/08/10 12:18:17;;;;;;;3.10;0.55;;;20.20;99.90;;;;;;5113825;28;20055;-60
2023/08/10 12:20:47;;;;;;;0.20;0.20;;;20.30;99.90;;;;;;5113483;28;20052;-60
2023/08/10 12:23:14;;;;;;;0.15;0.15;;;20.40;99.90;;;;;;5113189;28;20486;-60
2023/08/10 12:25:41;;;;;;;0.40;0.40;;;19.90;99.90;;;;;;5113670;28;20126;-60
2023/08/10 12:28:07;;;;;;;0.17;0.17;;;20.20;99.90;;;;;;5113480;28;20499;-61
2023/08/10 12:30:34;;;;;;;0.25;0.25;;;20.00;99.90;;;;;;5113680;28;20079;-60
2023/08/10 12:33:01;;;;;;;0.15;0.15;;;19.70;99.90;;;;;;5113491;28;20043;-60
2023/08/10 12:35:27;;;;;;;0.60;0.30;;;19.80;99.90;;;;;;5113205;28;20058;-61
2023/08/10 12:37:53;;;;;;;0.25;0.25;;;19.70;99.90;;;;;;5113406;28;20044;-60
2023/08/10 12:40:19;;;;;;;0.10;0.10;;;19.70;99.90;;;;;;5113615;28;20044;-60
2023/08/10 12:42:45;;;;;;;0.35;0.35;;;19.60;99.90;;;;;;5095154;28;20099;-60
2023/08/10 12:45:12;;;;;;;0.22;0.22;;;19.40;99.90;;;;;;5113745;28;20061;-60
2023/08/10 12:47:39;;;;;;;0.00;0.00;;;19.60;99.90;;;;;;5113297;28;20051;-60
2023/08/10 12:50:06;;;;;;;0.65;0.38;;;19.40;99.90;;;;;;5095162;28;20048;-60
2023/08/10 12:52:32;;;;;;;0.10;0.10;;;19.20;99.90;;;;;;5113274;28;20028;-59
2023/08/10 12:54:59;;;;;;;0.20;0.20;;;19.40;99.90;;;;;;5113320;28;20066;-61
2023/08/10 12:57:24;;;;;;;0.30;0.30;;;19.30;99.90;;;;;;5113258;28;20043;-60